Time;durP1;ratioP1;P1;durP2;ratioP2;P2;SDS_P1;SDS_P2;PMS_P1;PMS_P2;Temp;Humidity;BMP_temperature;BMP_pressure;BME280_temperature;BME280_humidity;BME280_pressure;Samples;Min_cycle;Max_cycle;Signal;HPM_P1;HPM_P2
2022/02/02 00:00:09;;;;;;;24.63;15.87;;;;;;;0.47;100.00;99824.22;4989753;28;20030;-79
2022/02/02 00:02:43;;;;;;;25.43;15.40;;;;;;;0.60;100.00;99851.31;4986874;28;20038;-76
2022/02/02 00:05:35;;;;;;;24.20;14.43;;;;;;;0.70;100.00;99868.03;4988589;28;20590;-75
2022/02/02 00:08:15;;;;;;;21.97;13.73;;;;;;;0.75;100.00;99855.66;4980464;28;20117;-72
2022/02/02 00:21:04;;;;;;;20.57;13.90;;;;;;;1.09;100.00;99840.91;5071687;28;20052;-73
2022/02/02 00:23:36;;;;;;;23.80;15.97;;;;;;;1.05;100.00;99838.97;5053606;28;20119;-75
2022/02/02 00:26:08;;;;;;;23.07;15.70;;;;;;;1.04;100.00;99836.34;5071014;28;20036;-74
2022/02/02 00:28:39;;;;;;;23.93;13.17;;;;;;;0.74;100.00;99788.69;5052898;28;20036;-74
2022/02/02 00:31:09;;;;;;;19.80;12.97;;;;;;;0.88;100.00;99829.38;5071419;28;20111;-75
2022/02/02 00:33:43;;;;;;;18.97;11.67;;;;;;;0.89;100.00;99834.56;5052592;28;20050;-75
2022/02/02 00:36:20;;;;;;;18.33;12.20;;;;;;;0.90;100.00;99832.91;5071206;28;20052;-83
2022/02/02 00:38:46;;;;;;;19.77;13.23;;;;;;;0.94;100.00;99827.22;5068800;28;20062;-75
2022/02/02 00:41:12;;;;;;;19.77;12.73;;;;;;;1.04;100.00;99829.59;5070151;28;20479;-78
2022/02/02 00:43:40;;;;;;;25.83;13.37;;;;;;;1.03;100.00;99832.91;5053498;28;20120;-76
2022/02/02 00:46:05;;;;;;;21.63;13.87;;;;;;;0.82;100.00;99776.47;5071428;28;20560;-79
2022/02/02 00:48:48;;;;;;;15.68;9.93;;;;;;;1.13;100.00;99822.56;5071309;28;20024;-79
2022/02/02 00:51:19;;;;;;;17.75;12.32;;;;;;;1.04;100.00;99801.63;5071303;28;20039;-77
2022/02/02 00:53:45;;;;;;;23.33;13.90;;;;;;;1.17;100.00;99807.50;5053334;28;20033;-77
2022/02/02 00:56:10;;;;;;;21.20;13.53;;;;;;;1.13;100.00;99794.59;5071194;28;20036;-76
2022/02/02 00:58:36;;;;;;;17.57;12.57;;;;;;;1.18;100.00;99791.47;5071373;28;20099;-78
2022/02/02 01:01:02;;;;;;;21.13;12.97;;;;;;;1.17;100.00;99800.72;5070787;28;20036;-76
2022/02/02 01:03:28;;;;;;;22.07;13.10;;;;;;;0.97;100.00;99756.25;5052740;28;20097;-77
2022/02/02 01:05:53;;;;;;;25.20;13.70;;;;;;;1.22;100.00;99799.38;5070602;28;20111;-77
2022/02/02 01:11:29;;;;;;;22.63;13.10;;;;;;;1.01;100.00;99748.06;5070871;28;20047;-79
2022/02/02 01:19:24;;;;;;;21.13;13.53;;;;;;;0.86;100.00;99772.47;5070881;28;20043;-78
2022/02/02 01:29:48;;;;;;;24.27;14.67;;;;;;;0.68;100.00;99790.84;5071062;28;20075;-77
2022/02/02 01:32:14;;;;;;;22.17;14.43;;;;;;;0.79;100.00;99801.72;5070788;28;20079;-79
2022/02/02 01:34:40;;;;;;;29.53;19.83;;;;;;;0.85;100.00;99789.41;5070581;28;20029;-76
2022/02/02 01:37:05;;;;;;;27.83;17.33;;;;;;;0.87;100.00;99792.03;5070423;28;20032;-80
2022/02/02 01:39:32;;;;;;;32.87;22.87;;;;;;;0.80;100.00;99761.16;5070349;28;20024;-77
2022/02/02 01:42:00;;;;;;;29.53;19.80;;;;;;;0.69;100.00;99758.72;5070781;28;20024;-77
2022/02/02 01:46:52;;;;;;;23.63;15.50;;;;;;;0.48;100.00;99698.09;5070349;28;20036;-77
2022/02/02 01:59:59;;;;;;;;;;;;;;;0.75;100.00;99729.47;5008436;28;20515;-79
2022/02/02 02:02:26;;;;;;;21.70;13.27;;;;;;;0.59;100.00;99717.47;5001611;28;19976;-77
2022/02/02 02:04:51;;;;;;;22.03;14.53;;;;;;;0.67;100.00;99735.72;5002406;28;20507;-76
2022/02/02 02:07:17;;;;;;;23.53;15.20;;;;;;;0.77;100.00;99733.00;5008073;28;20042;-80
2022/02/02 02:09:43;;;;;;;21.77;14.50;;;;;;;0.87;100.00;99742.06;5008101;28;20073;-77
2022/02/02 02:12:10;;;;;;;22.87;14.77;;;;;;;0.69;100.00;99728.22;5007630;28;20046;-76
2022/02/02 02:17:06;;;;;;;22.38;14.75;;;;;;;0.44;100.00;99686.88;5008797;28;20200;-79
2022/02/02 02:19:32;;;;;;;27.93;18.23;;;;;;;0.71;100.00;99725.00;5011696;28;20153;-77
2022/02/02 02:21:58;;;;;;;22.63;14.50;;;;;;;0.78;100.00;99716.97;5012048;28;20100;-78
2022/02/02 02:24:23;;;;;;;20.57;12.77;;;;;;;0.89;100.00;99724.41;5012142;28;20038;-79
2022/02/02 02:26:49;;;;;;;26.27;16.27;;;;;;;0.77;100.00;99692.38;5011418;28;20114;-82
2022/02/02 02:31:57;;;;;;;24.10;15.47;;;;;;;0.84;100.00;99677.50;5011586;28;20046;-77
2022/02/02 02:37:25;;;;;;;22.13;13.90;;;;;;;1.16;100.00;99711.66;5031088;28;20033;-77
2022/02/02 03:54:44;;;;;;;20.67;12.60;;;;;;;0.63;100.00;99658.44;5009622;28;20065;-79
2022/02/02 04:04:47;;;;;;;19.70;12.00;;;;;;;0.59;100.00;99675.94;5009738;28;20635;-79
2022/02/02 04:07:44;;;;;;;19.03;12.13;;;;;;;0.51;100.00;99667.81;5009718;28;20237;-80
2022/02/02 04:10:04;;;;;;;23.17;14.67;;;;;;;0.38;100.00;99658.53;5007654;28;20040;-79
2022/02/02 04:51:25;;;;;;;29.23;18.07;;;;;;;1.03;100.00;99682.06;5051108;28;20091;-80
2022/02/02 04:58:22;;;;;;;29.27;18.63;;;;;;;1.35;100.00;99673.88;5051335;28;20479;-82
2022/02/02 05:26:02;;;;;;;31.23;19.67;;;;;;;1.11;100.00;99679.22;5008682;28;20141;-84
2022/02/02 05:49:47;;;;;;;43.87;28.57;;;;;;;0.57;100.00;99647.88;5052947;28;20567;-82
2022/02/02 05:52:13;;;;;;;30.83;19.87;;;;;;;0.51;100.00;99629.72;5047368;28;20071;-81
2022/02/02 05:54:39;;;;;;;34.10;20.83;;;;;;;0.60;100.00;99682.78;5030821;28;20522;-85
2022/02/02 05:57:10;;;;;;;35.87;21.67;;;;;;;0.39;100.00;99651.81;5030418;28;20037;-84
2022/02/02 05:59:39;;;;;;;37.03;22.77;;;;;;;0.64;100.00;99674.56;5047398;28;20584;-82
2022/02/02 06:02:09;;;;;;;39.77;23.33;;;;;;;0.57;100.00;99667.34;5047042;28;20056;-81
2022/02/02 06:04:35;;;;;;;39.93;24.07;;;;;;;0.66;100.00;99672.13;5047475;28;20190;-85
2022/02/02 06:07:01;;;;;;;44.10;27.00;;;;;;;0.88;100.00;99684.53;5030910;28;20068;-81
2022/02/02 06:09:34;;;;;;;42.73;25.53;;;;;;;0.96;100.00;99681.69;5030904;28;20037;-82
2022/02/02 06:12:01;;;;;;;44.17;27.10;;;;;;;1.01;100.00;99691.25;5030926;28;20087;-84
2022/02/02 06:14:29;;;;;;;42.40;26.07;;;;;;;1.00;100.00;99685.28;5030630;28;20451;-82
2022/02/02 06:16:59;;;;;;;44.07;26.43;;;;;;;1.09;100.00;99695.16;5047387;28;20174;-84
2022/02/02 06:19:25;;;;;;;38.57;23.23;;;;;;;1.14;100.00;99698.84;5047283;28;20033;-86
2022/02/02 06:22:04;;;;;;;42.63;25.03;;;;;;;1.18;100.00;99703.34;5030947;28;20056;-82
2022/02/02 06:24:33;;;;;;;42.72;26.25;;;;;;;1.01;100.00;99674.34;5052149;28;20025;-81
2022/02/02 06:27:24;;;;;;;34.90;21.77;;;;;;;1.23;100.00;99706.19;5069621;28;20031;-83
2022/02/02 06:30:09;;;;;;;35.50;21.53;;;;;;;1.16;100.00;99676.06;4968817;28;20042;-81
2022/02/02 06:32:46;;;;;;;36.30;22.27;;;;;;;1.38;100.00;99708.78;4968460;28;20721;-83
2022/02/02 06:35:14;;;;;;;31.03;20.70;;;;;;;1.40;100.00;99703.00;4962347;28;20058;-83
2022/02/02 06:37:41;;;;;;;31.13;19.60;;;;;;;1.23;100.00;99676.53;4934557;28;20035;-82
2022/02/02 06:40:08;;;;;;;32.80;21.17;;;;;;;1.33;100.00;99703.41;4934640;28;20071;-84
2022/02/02 06:42:36;;;;;;;34.93;21.00;;;;;;;1.24;100.00;99696.09;4950683;28;20039;-84
2022/02/02 06:45:02;;;;;;;37.37;22.03;;;;;;;1.37;100.00;99709.56;4967770;28;20030;-84
2022/02/02 06:47:29;;;;;;;36.80;23.27;;;;;;;1.43;100.00;99708.28;4962372;28;20044;-82
2022/02/02 06:50:05;;;;;;;35.17;22.57;;;;;;;1.50;100.00;99703.56;4948797;28;20537;-81
2022/02/02 06:52:38;;;;;;;42.67;27.67;;;;;;;1.28;100.00;99667.53;4968034;28;20405;-83
2022/02/02 06:55:17;;;;;;;50.10;29.73;;;;;;;1.20;100.00;99640.75;4967597;28;20051;-86
2022/02/02 06:58:20;;;;;;;49.67;31.02;;;;;;;1.60;100.00;99716.06;4967682;28;20070;-83
2022/02/02 07:03:40;;;;;;;46.07;28.77;;;;;;;1.44;100.00;99701.53;4969191;28;20117;-81
2022/02/02 07:06:16;;;;;;;61.17;48.63;;;;;;;1.31;100.00;99682.09;4990889;28;20043;-83
2022/02/02 07:12:08;;;;;;;50.17;34.63;;;;;;;1.51;100.00;99711.28;4990318;28;20104;-85
2022/02/02 07:17:37;;;;;;;48.57;31.93;;;;;;;1.55;100.00;99709.81;4970891;28;20122;-84
2022/02/02 07:28:08;;;;;;;42.87;27.10;;;;;;;1.51;100.00;99720.56;4913578;29;20044;-84
2022/02/02 07:30:52;;;;;;;43.53;26.50;;;;;;;1.31;100.00;99712.63;4912639;29;20044;-83
2022/02/02 07:33:24;;;;;;;43.50;26.37;;;;;;;1.24;100.00;99729.16;4897672;29;20127;-81
2022/02/02 07:38:49;;;;;;;45.50;28.37;;;;;;;1.12;100.00;99729.28;4913405;29;20427;-86
2022/02/02 07:41:25;;;;;;;46.50;29.20;;;;;;;1.23;100.00;99747.72;4912784;29;20566;-82
2022/02/02 07:43:54;;;;;;;47.30;29.47;;;;;;;1.31;100.00;99758.41;4908777;29;20621;-82
2022/02/02 07:46:26;;;;;;;44.93;26.80;;;;;;;1.32;100.00;99739.81;4889037;29;20071;-83
2022/02/02 07:48:51;;;;;;;47.80;28.13;;;;;;;1.25;100.00;99722.41;4906055;29;20130;-81
2022/02/02 07:51:17;;;;;;;45.80;28.27;;;;;;;1.46;100.00;99753.38;4932075;29;20571;-81
2022/02/02 07:53:48;;;;;;;43.67;28.37;;;;;;;1.34;100.00;99717.00;4934789;29;20046;-84
2022/02/02 07:56:17;;;;;;;49.07;28.47;;;;;;;1.40;100.00;99723.34;4950823;29;20027;-83
2022/02/02 07:58:47;;;;;;;39.05;25.65;;;;;;;1.57;100.00;99738.75;4931428;28;20050;-80
2022/02/02 08:01:15;;;;;;;45.80;29.37;;;;;;;1.65;100.00;99750.28;5043300;28;20024;-80
2022/02/02 08:03:44;;;;;;;49.90;32.47;;;;;;;1.40;100.00;99708.09;5053565;28;20056;-82
2022/02/02 08:06:11;;;;;;;41.33;27.42;;;;;;;1.44;100.00;99717.66;5053549;28;20033;-83
2022/02/02 08:08:40;;;;;;;43.03;27.47;;;;;;;1.29;100.00;99721.81;5071212;28;20028;-80
2022/02/02 08:11:08;;;;;;;43.17;27.47;;;;;;;1.42;100.00;99752.31;5071490;28;20078;-79
2022/02/02 08:13:39;;;;;;;44.50;26.83;;;;;;;1.17;100.00;99743.94;5071745;28;20032;-78
2022/02/02 08:16:09;;;;;;;35.67;24.40;;;;;;;0.98;100.00;99731.72;5071475;28;20055;-77
2022/02/02 08:18:37;;;;;;;38.80;25.15;;;;;;;1.00;100.00;99748.84;5071423;28;20063;-79
2022/02/02 08:21:02;;;;;;;38.60;25.10;;;;;;;0.92;100.00;99750.91;5052542;28;20079;-81
2022/02/02 08:23:28;;;;;;;57.73;39.03;;;;;;;0.88;100.00;99742.97;5044155;28;20063;-82
2022/02/02 08:25:56;;;;;;;45.67;30.50;;;;;;;0.77;100.00;99727.94;5066416;28;20060;-79
2022/02/02 08:28:23;;;;;;;49.53;31.20;;;;;;;0.72;100.00;99728.41;5053023;28;20037;-78
2022/02/02 08:30:49;;;;;;;49.30;30.73;;;;;;;0.65;100.00;99706.81;5070976;28;20270;-79
2022/02/02 08:33:20;;;;;;;49.60;32.23;;;;;;;0.94;100.00;99751.00;5045686;28;20406;-77
2022/02/02 08:35:51;;;;;;;52.27;33.33;;;;;;;0.69;100.00;99696.06;5057302;28;20476;-78
2022/02/02 08:41:11;;;;;;;56.27;33.57;;;;;;;1.05;100.00;99754.22;4970654;28;20050;-78
2022/02/02 08:46:10;;;;;;;51.50;32.70;;;;;;;1.23;100.00;99770.59;4989911;28;20105;-81
2022/02/02 08:48:41;;;;;;;52.23;29.90;;;;;;;1.10;100.00;99757.94;4990094;28;20093;-76
2022/02/02 08:51:08;;;;;;;55.77;33.93;;;;;;;1.05;100.00;99756.75;4989842;28;20079;-78
2022/02/02 08:53:54;;;;;;;55.20;35.67;;;;;;;0.99;100.00;99753.84;4989739;28;20031;-79
2022/02/02 08:58:48;;;;;;;47.93;30.07;;;;;;;0.58;100.00;99719.91;4989951;28;20083;-76
2022/02/02 09:01:24;;;;;;;45.90;28.07;;;;;;;0.68;100.00;99764.56;4989694;28;20062;-74
2022/02/02 09:06:34;;;;;;;43.23;26.20;;;;;;;0.55;100.00;99743.44;4989849;28;20037;-76
2022/02/02 09:09:10;;;;;;;42.30;25.83;;;;;;;0.60;100.00;99751.38;4989639;28;20468;-77
2022/02/02 09:20:11;;;;;;;95.07;64.10;;;;;;;0.45;100.00;99772.44;5050816;28;20055;-77
2022/02/02 09:25:53;;;;;;;55.37;32.40;;;;;;;0.24;100.00;99759.19;5042281;28;20414;-76
2022/02/02 09:33:54;;;;;;;44.10;26.93;;;;;;;0.30;100.00;99768.91;5038854;28;20043;-79
2022/02/02 09:36:24;;;;;;;42.33;28.30;;;;;;;0.24;100.00;99753.25;5023990;28;20040;-79
2022/02/02 09:38:53;;;;;;;42.72;26.92;;;;;;;0.31;100.00;99755.41;5044737;28;20040;-80
2022/02/02 09:44:08;;;;;;;48.57;29.23;;;;;;;0.31;100.00;99746.13;5041436;28;20047;-77
2022/02/02 09:49:15;;;;;;;51.07;31.43;;;;;;;0.45;100.00;99752.13;5040516;28;20476;-79
2022/02/02 09:51:47;;;;;;;57.03;34.33;;;;;;;0.23;100.00;99690.56;5038392;28;20021;-81
2022/02/02 09:54:22;;;;;;;46.97;29.60;;;;;;;0.52;100.00;99730.53;5023433;28;20112;-81
2022/02/02 09:57:31;;;;;;;53.87;31.80;;;;;;;0.55;100.00;99737.47;5023066;28;20037;-83
2022/02/02 10:03:01;;;;;;;46.73;29.73;;;;;;;0.51;100.00;99727.91;5069544;28;20043;-81
2022/02/02 10:05:54;;;;;;;46.57;28.70;;;;;;;0.48;100.00;99724.38;5051718;28;20055;-79
2022/02/02 10:08:46;;;;;;;43.63;25.47;;;;;;;0.36;100.00;99702.38;5068616;28;20845;-83
2022/02/02 10:11:08;;;;;;;43.87;26.90;;;;;;;0.45;100.00;99706.41;5069683;28;20044;-79
2022/02/02 10:14:03;;;;;;;48.00;33.67;;;;;;;0.43;100.00;99713.03;5050896;28;20025;-77
2022/02/02 10:16:28;;;;;;;84.37;64.93;;;;;;;0.14;100.00;99691.72;5043074;28;20475;-86
2022/02/02 10:19:14;;;;;;;73.50;53.10;;;;;;;0.29;100.00;99707.06;5012615;28;20049;-85
2022/02/02 10:21:40;;;;;;;58.37;35.03;;;;;;;0.36;100.00;99712.53;5012098;28;20141;-73
2022/02/02 10:24:06;;;;;;;50.00;31.27;;;;;;;0.27;100.00;99713.69;5021101;28;20120;-79
2022/02/02 10:26:31;;;;;;;50.07;31.97;;;;;;;-0.02;100.00;99678.78;5030280;28;20716;-80
2022/02/02 10:29:07;;;;;;;45.70;28.90;;;;;;;0.29;100.00;99723.97;5039476;28;20028;-79
2022/02/02 10:31:47;;;;;;;41.87;27.33;;;;;;;0.13;100.00;99694.16;5046405;28;20118;-72
2022/02/02 10:34:16;;;;;;;39.33;27.43;;;;;;;0.19;100.00;99702.19;5046054;28;20041;-74
2022/02/02 10:36:42;;;;;;;26.13;16.90;;;;;;;0.19;100.00;99689.47;5046509;28;20160;-75
2022/02/02 10:39:13;;;;;;;29.93;20.80;;;;;;;0.06;100.00;99672.53;5048870;28;20033;-74
2022/02/02 10:41:48;;;;;;;39.93;27.73;;;;;;;0.37;100.00;99701.63;5053545;28;20091;-73
2022/02/02 10:44:18;;;;;;;41.80;34.07;;;;;;;0.42;100.00;99703.66;5051460;28;20041;-75
2022/02/02 10:49:29;;;;;;;104.50;79.23;;;;;;;0.12;100.00;99652.66;5051018;28;20075;-76
2022/02/02 10:57:47;;;;;;;27.73;18.52;;;;;;;0.29;100.00;99694.38;4961224;28;20437;-78
2022/02/02 11:00:27;;;;;;;26.90;18.33;;;;;;;0.27;100.00;99703.53;4969227;28;20035;-78
2022/02/02 11:08:22;;;;;;;25.30;17.67;;;;;;;0.39;100.00;99688.25;4960090;28;20049;-79
2022/02/02 11:10:50;;;;;;;24.07;16.63;;;;;;;0.55;100.00;99700.28;4967585;28;20034;-79
2022/02/02 11:13:16;;;;;;;24.13;15.30;;;;;;;0.24;100.00;99655.13;4964977;28;20151;-79
2022/02/02 11:16:01;;;;;;;21.37;14.43;;;;;;;0.57;100.00;99697.81;4959161;28;20038;-78
2022/02/02 11:18:34;;;;;;;20.43;14.90;;;;;;;0.56;100.00;99701.13;4957254;28;20521;-76
2022/02/02 11:21:10;;;;;;;22.00;14.73;;;;;;;0.43;100.00;99702.88;4950277;29;20051;-75
2022/02/02 11:23:48;;;;;;;24.23;15.43;;;;;;;0.37;100.00;99701.63;4950578;29;20055;-74
2022/02/02 11:27:00;;;;;;;23.40;16.13;;;;;;;0.26;100.00;99695.81;4949845;29;20608;-78
2022/02/02 11:29:41;;;;;;;23.63;16.23;;;;;;;0.35;100.00;99690.47;4930648;29;20043;-78
2022/02/02 11:32:10;;;;;;;26.03;17.60;;;;;;;0.29;100.00;99689.28;4958257;28;20517;-79
2022/02/02 11:34:35;;;;;;;25.97;17.40;;;;;;;0.42;100.00;99690.97;5008792;28;20080;-80
2022/02/02 11:37:04;;;;;;;23.97;16.80;;;;;;;0.07;100.00;99635.38;5009494;28;20045;-80
2022/02/02 11:39:36;;;;;;;25.02;17.63;;;;;;;0.28;100.00;99679.03;5009984;28;20042;-80
2022/02/02 11:42:14;;;;;;;25.13;15.83;;;;;;;0.24;100.00;99682.19;4994449;28;20030;-82
2022/02/02 11:44:49;;;;;;;25.63;17.13;;;;;;;0.31;100.00;99675.06;5007705;28;20045;-84
2022/02/02 11:49:44;;;;;;;26.37;18.27;;;;;;;0.53;100.00;99680.63;5009426;28;20542;-81
2022/02/02 11:52:28;;;;;;;31.43;20.13;;;;;;;0.50;100.00;99680.41;5008130;28;20052;-81
2022/02/02 11:54:55;;;;;;;30.23;20.97;;;;;;;0.41;100.00;99663.84;5008603;28;20030;-81
2022/02/02 11:57:26;;;;;;;31.70;20.00;;;;;;;0.30;100.00;99634.34;5015661;28;20037;-79
2022/02/02 12:00:05;;;;;;;32.03;21.47;;;;;;;0.58;100.00;99675.06;5068821;28;20134;-74
2022/02/02 12:35:59;;;;;;;31.93;20.77;;;;;;;0.25;100.00;99683.91;4947852;28;20122;-74
2022/02/02 13:00:40;;;;;;;32.40;21.67;;;;;;;0.57;100.00;99670.75;4968504;28;20038;-74
2022/02/02 13:03:07;;;;;;;22.73;16.23;;;;;;;0.52;100.00;99681.41;4968935;28;20041;-75
2022/02/02 13:05:36;;;;;;;24.40;16.97;;;;;;;0.48;100.00;99665.97;4968736;28;20109;-74
2022/02/02 13:08:04;;;;;;;24.77;17.17;;;;;;;0.54;100.00;99668.03;4959578;28;20041;-74
2022/02/02 13:10:32;;;;;;;26.43;18.33;;;;;;;0.55;100.00;99669.78;4961845;28;20045;-74
2022/02/02 13:13:05;;;;;;;42.53;29.10;;;;;;;0.21;100.00;99631.19;4957497;28;20026;-73
2022/02/02 13:15:51;;;;;;;33.20;23.33;;;;;;;0.44;100.00;99683.47;4968096;28;20117;-80
2022/02/02 13:18:32;;;;;;;57.50;50.63;;;;;;;0.48;100.00;99681.19;4944116;28;20126;-80
2022/02/02 13:26:34;;;;;;;37.53;25.70;;;;;;;0.54;100.00;99665.50;4968932;28;20097;-74
2022/02/02 13:29:18;;;;;;;32.40;22.30;;;;;;;0.40;100.00;99644.28;4957061;28;20030;-73
2022/02/02 13:34:28;;;;;;;24.13;17.13;;;;;;;0.68;100.00;99680.72;5018923;28;20040;-72
2022/02/02 14:33:26;;;;;;;50.97;26.97;;;;;;;1.04;100.00;99646.56;5073735;28;20082;-77
2022/02/02 14:35:59;;;;;;;64.40;30.87;;;;;;;0.89;100.00;99615.13;5055802;28;20498;-76
2022/02/02 14:38:29;;;;;;;59.63;31.03;;;;;;;1.13;100.00;99648.78;5073206;28;20020;-77
2022/02/02 14:41:01;;;;;;;;;;;;;;;1.17;100.00;99655.81;5072869;28;20028;-81
2022/02/02 14:43:34;;;;;;;44.23;28.00;;;;;;;1.13;100.00;99642.06;5073705;28;20396;-75
2022/02/02 14:46:01;;;;;;;54.90;31.90;;;;;;;1.13;100.00;99652.22;5073986;28;20025;-77
2022/02/02 14:48:32;;;;;;;45.67;30.70;;;;;;;0.98;100.00;99622.44;5073520;28;20099;-75
2022/02/02 14:51:18;;;;;;;55.50;32.63;;;;;;;1.13;100.00;99647.16;5073848;28;20021;-72
2022/02/02 14:56:38;;;;;;;43.97;28.63;;;;;;;1.09;100.00;99629.06;5073118;28;20020;-77
2022/02/02 15:27:16;;;;;;;40.07;24.53;;;;;;;0.75;100.00;99639.69;5053970;28;20506;-77
2022/02/02 15:29:08;;;;;;;37.57;22.93;;;;;;;0.67;100.00;99626.50;4977588;28;20046;-77
2022/02/02 15:31:35;;;;;;;32.93;19.00;;;;;;;0.69;100.00;99652.00;4974680;28;20039;-77
2022/02/02 15:34:02;;;;;;;27.57;18.30;;;;;;;0.69;100.00;99649.47;4970373;28;20429;-77
2022/02/02 15:39:10;;;;;;;26.20;17.90;;;;;;;0.64;100.00;99659.34;4972859;28;20040;-77
2022/02/02 15:41:46;;;;;;;26.73;17.97;;;;;;;0.69;100.00;99668.13;4975439;28;20505;-77
2022/02/02 16:01:22;;;;;;;38.67;25.07;;;;;;;0.28;100.00;99656.19;5029441;28;20036;-75
2022/02/02 16:03:27;;;;;;;40.67;26.27;;;;;;;0.58;100.00;99699.59;5026979;28;20037;-74
2022/02/02 16:05:58;;;;;;;44.33;26.97;;;;;;;0.63;100.00;99700.75;5029162;28;20041;-77
2022/02/02 16:08:26;;;;;;;39.33;27.17;;;;;;;0.64;100.00;99711.00;5018440;28;20052;-78
2022/02/02 16:16:01;;;;;;;39.93;26.63;;;;;;;0.56;100.00;99724.91;5023800;28;20523;-80
2022/02/02 16:18:38;;;;;;;37.53;25.60;;;;;;;0.49;100.00;99732.88;5027052;28;20033;-80
2022/02/02 16:37:24;;;;;;;37.57;22.57;;;;;;;0.51;100.00;99715.19;4969380;28;20058;-78
2022/02/02 16:39:53;;;;;;;31.13;21.53;;;;;;;0.58;100.00;99736.00;4961160;28;20042;-79
2022/02/02 16:45:05;;;;;;;29.30;20.40;;;;;;;0.57;100.00;99725.75;4989548;28;20599;-76
2022/02/02 16:47:31;;;;;;;29.73;19.43;;;;;;;0.51;100.00;99721.16;4990035;28;20034;-71
2022/02/02 16:49:56;;;;;;;29.13;18.60;;;;;;;0.33;100.00;99715.75;4989744;28;20038;-74
2022/02/02 16:52:25;;;;;;;34.07;22.70;;;;;;;0.41;100.00;99731.50;4973420;28;20042;-79
2022/02/02 16:54:51;;;;;;;33.40;21.47;;;;;;;0.38;100.00;99746.53;4973309;28;20128;-80
2022/02/02 17:34:47;;;;;;;30.03;19.70;;;;;;;0.25;100.00;99742.28;5070982;28;20036;-73
2022/02/02 17:40:06;;;;;;;28.27;19.10;;;;;;;0.50;100.00;99789.63;5070660;28;20517;-76
2022/02/02 18:18:20;;;;;;;26.70;17.90;;;;;;;0.91;100.00;99772.00;5007650;28;20033;-81
2022/02/02 18:20:08;;;;;;;25.80;17.97;;;;;;;0.81;100.00;99756.97;5007490;28;20105;-80
2022/02/02 18:22:40;;;;;;;30.50;19.20;;;;;;;0.78;100.00;99764.38;5041660;28;20481;-83
2022/02/02 18:25:15;;;;;;;29.43;18.43;;;;;;;0.67;100.00;99763.66;5070468;28;20047;-80
2022/02/02 18:35:12;;;;;;;36.83;27.17;;;;;;;0.21;100.00;99773.34;5070741;28;20024;-87
2022/02/02 18:51:16;;;;;;;32.37;21.03;;;;;;;0.40;100.00;99798.28;5068473;28;20095;-81
2022/02/02 18:53:59;;;;;;;33.73;20.70;;;;;;;0.19;100.00;99780.88;5034235;28;20025;-78
2022/02/02 19:04:34;;;;;;;31.87;19.83;;;;;;;0.52;100.00;99775.38;5053792;28;20021;-75
2022/02/02 19:40:02;;;;;;;32.23;19.70;;;;;;;0.31;100.00;99774.06;4996675;28;20432;-77
2022/02/02 20:06:36;;;;;;;30.37;19.47;;;;;;;0.61;100.00;99796.28;4989432;28;20034;-80
2022/02/02 20:11:31;;;;;;;29.70;18.87;;;;;;;0.69;100.00;99800.22;4989616;28;20038;-77
2022/02/02 20:13:57;;;;;;;31.03;20.00;;;;;;;0.70;100.00;99793.47;4990317;28;20073;-77
2022/02/02 20:16:23;;;;;;;31.13;19.87;;;;;;;0.61;100.00;99783.59;4989537;28;20061;-79
2022/02/02 20:18:53;;;;;;;30.33;19.50;;;;;;;0.69;100.00;99764.66;5022915;28;20044;-87
2022/02/02 20:21:22;;;;;;;30.57;19.73;;;;;;;0.76;100.00;99761.75;5049889;28;20076;-86
2022/02/02 20:23:49;;;;;;;31.60;21.23;;;;;;;0.94;100.00;99797.59;5047935;28;20453;-88
2022/02/02 20:26:17;;;;;;;34.57;23.07;;;;;;;0.96;100.00;99785.88;5049610;28;20103;-89
2022/02/02 20:28:45;;;;;;;36.57;24.57;;;;;;;1.07;100.00;99795.84;5051212;28;20052;-76
2022/02/02 20:31:11;;;;;;;30.20;20.73;;;;;;;1.13;100.00;99799.69;5050818;28;20025;-75
2022/02/02 20:33:37;;;;;;;30.33;20.50;;;;;;;1.16;100.00;99796.44;5052136;28;20384;-77
2022/02/02 20:36:03;;;;;;;34.50;21.80;;;;;;;1.13;100.00;99799.69;5050058;28;20035;-80
2022/02/02 20:38:28;;;;;;;38.73;24.53;;;;;;;1.01;100.00;99781.09;5051689;28;20043;-76
2022/02/02 20:40:54;;;;;;;39.33;25.73;;;;;;;0.83;100.00;99763.00;5050774;28;20033;-76
2022/02/02 20:43:44;;;;;;;39.77;24.23;;;;;;;0.94;100.00;99776.41;5050410;28;20044;-76
2022/02/02 21:05:23;;;;;;;29.50;20.80;;;;;;;0.87;100.00;99802.19;4970408;28;20141;-74
2022/02/02 21:10:31;;;;;;;33.20;21.50;;;;;;;0.85;100.00;99824.97;4955827;28;20049;-75
2022/02/02 21:15:42;;;;;;;32.87;20.43;;;;;;;0.70;100.00;99779.13;4930722;29;20452;-80
2022/02/02 21:18:21;;;;;;;32.33;21.10;;;;;;;0.82;100.00;99823.91;4943286;29;20536;-80
2022/02/02 21:21:04;;;;;;;33.38;21.17;;;;;;;0.84;100.00;99828.28;4930706;29;20047;-75
2022/02/02 21:28:30;;;;;;;28.87;19.37;;;;;;;0.80;100.00;99798.41;5010959;28;20494;-74
2022/02/02 21:30:55;;;;;;;29.17;19.67;;;;;;;0.84;100.00;99804.56;5011328;28;20470;-72
2022/02/02 21:33:22;;;;;;;34.53;22.03;;;;;;;0.89;100.00;99808.28;5010569;28;20033;-75
2022/02/02 21:35:50;;;;;;;31.30;20.93;;;;;;;0.94;100.00;99801.81;5029229;28;20037;-74
2022/02/02 21:41:01;;;;;;;31.50;20.03;;;;;;;0.87;100.00;99781.88;4922972;29;20525;-75
2022/02/02 21:43:28;;;;;;;40.07;27.23;;;;;;;0.98;100.00;99798.69;4915619;29;20071;-74
2022/02/02 21:45:58;;;;;;;39.57;26.90;;;;;;;1.02;100.00;99813.34;4914248;29;20145;-73
2022/02/02 21:48:32;;;;;;;;;;;;;;;0.84;100.00;99813.03;4912765;29;20044;-73
2022/02/02 21:51:03;;;;;;;34.80;21.60;;;;;;;0.64;100.00;99817.69;4912116;29;19914;-76
2022/02/02 21:57:05;;;;;;;35.40;24.13;;;;;;;0.41;100.00;99803.50;5162789;23;20087;-72
2022/02/02 21:59:31;;;;;;;38.53;23.63;;;;;;;0.59;100.00;99829.22;5069089;28;20040;-75
2022/02/02 22:01:57;;;;;;;43.93;27.30;;;;;;;0.65;100.00;99826.22;5060136;28;20040;-76
2022/02/02 22:04:42;;;;;;;64.13;39.27;;;;;;;0.69;100.00;99833.25;5014829;28;20481;-73
2022/02/02 22:07:08;;;;;;;52.47;33.53;;;;;;;0.72;100.00;99825.81;4990447;28;20104;-75
2022/02/02 22:09:33;;;;;;;58.33;36.30;;;;;;;0.71;100.00;99818.09;4974545;28;20038;-75
2022/02/02 22:11:59;;;;;;;49.73;31.33;;;;;;;0.74;100.00;99820.84;5012934;28;20042;-75
2022/02/02 22:14:25;;;;;;;39.13;25.33;;;;;;;0.83;100.00;99825.66;4991431;28;20488;-81
2022/02/02 22:16:56;;;;;;;41.53;26.93;;;;;;;0.82;100.00;99832.38;4991593;28;20050;-78
2022/02/02 22:19:22;;;;;;;39.80;25.70;;;;;;;0.60;100.00;99787.81;4949193;28;20055;-76
2022/02/02 22:21:49;;;;;;;39.20;25.60;;;;;;;0.71;100.00;99818.09;4949340;28;20433;-81
2022/02/02 22:24:16;;;;;;;36.03;22.30;;;;;;;0.70;100.00;99841.75;4949249;28;20445;-80
2022/02/02 22:26:43;;;;;;;36.80;23.13;;;;;;;0.82;100.00;99841.69;4949622;29;20134;-81
2022/02/02 22:29:09;;;;;;;41.20;24.77;;;;;;;0.58;100.00;99817.28;4949053;28;20059;-82
2022/02/02 22:31:34;;;;;;;38.90;23.40;;;;;;;0.56;100.00;99841.72;4949760;29;20461;-86
2022/02/02 22:34:01;;;;;;;37.90;23.17;;;;;;;0.56;100.00;99823.94;4935965;29;20047;-79
2022/02/02 22:36:27;;;;;;;32.70;21.30;;;;;;;0.67;100.00;99842.41;4953463;29;20094;-79
2022/02/02 22:38:52;;;;;;;36.00;22.97;;;;;;;0.46;100.00;99799.59;4985140;28;20058;-76
2022/02/02 22:41:18;;;;;;;33.67;22.77;;;;;;;0.71;100.00;99831.69;4981534;28;20034;-76
2022/02/02 22:43:47;;;;;;;35.37;21.73;;;;;;;0.66;100.00;99811.84;4992550;28;20131;-86
2022/02/02 22:46:14;;;;;;;;;;;;;;;0.70;100.00;99823.94;4976459;28;20066;-83
2022/02/02 22:48:59;;;;;;;40.90;25.67;;;;;;;0.74;100.00;99833.56;4972750;28;20074;-80
2022/02/02 22:51:25;;;;;;;38.27;25.37;;;;;;;0.59;100.00;99818.19;5009093;28;20152;-78
2022/02/02 22:53:50;;;;;;;37.83;25.17;;;;;;;0.64;100.00;99825.31;4994781;28;20050;-81
2022/02/02 22:56:16;;;;;;;36.40;23.33;;;;;;;0.74;100.00;99823.41;5011247;28;20062;-80
2022/02/02 22:58:47;;;;;;;30.93;20.63;;;;;;;0.72;100.00;99815.66;4995368;28;20121;-85
2022/02/02 23:01:14;;;;;;;32.67;22.23;;;;;;;0.75;100.00;99810.78;4995252;28;20129;-85